Time;durP1;ratioP1;P1;durP2;ratioP2;P2;SDS_P1;SDS_P2;PMS_P1;PMS_P2;Temp;Humidity;BMP_temperature;BMP_pressure;BME280_temperature;BME280_humidity;BME280_pressure;Samples;Min_cycle;Max_cycle;Signal;HPM_P1;HPM_P2
2021/08/27 00:00:43;;;;;;;3.40;2.70;;;14.80;98.30;;;;;;5126869;23;20446;-80
2021/08/27 00:02:47;;;;;;;4.00;3.10;;;14.80;98.30;;;;;;5126133;23;20429;-80
2021/08/27 00:04:52;;;;;;;5.53;2.83;;;14.70;98.30;;;;;;5125519;23;20504;-80
2021/08/27 00:06:55;;;;;;;5.80;2.90;;;14.70;98.30;;;;;;5126278;23;20414;-80
2021/08/27 00:08:58;;;;;;;3.33;2.80;;;14.70;98.30;;;;;;5125840;23;20436;-80
2021/08/27 00:11:01;;;;;;;6.03;3.30;;;14.70;98.30;;;;;;5126494;23;20725;-80
2021/08/27 00:13:05;;;;;;;6.37;3.27;;;14.60;98.30;;;;;;5126018;23;20468;-80
2021/08/27 00:15:11;;;;;;;5.70;3.33;;;14.60;98.30;;;;;;5126650;23;20422;-80
2021/08/27 00:17:14;;;;;;;3.30;2.83;;;14.70;98.30;;;;;;5127171;23;20425;-80
2021/08/27 00:19:17;;;;;;;4.60;3.07;;;14.60;98.30;;;;;;5126231;23;20519;-79
2021/08/27 00:21:19;;;;;;;5.17;3.57;;;14.60;98.30;;;;;;5125793;23;20438;-80
2021/08/27 00:23:22;;;;;;;4.13;3.30;;;14.60;98.30;;;;;;5125724;23;20436;-79
2021/08/27 00:25:25;;;;;;;3.90;3.13;;;14.60;98.30;;;;;;5125754;23;20442;-79
2021/08/27 00:27:28;;;;;;;5.37;3.20;;;14.60;98.30;;;;;;5125567;23;20430;-80
2021/08/27 00:29:31;;;;;;;3.27;2.80;;;14.60;98.30;;;;;;5125582;23;20950;-80
2021/08/27 00:31:36;;;;;;;5.70;3.30;;;14.50;98.30;;;;;;5125846;23;20792;-79
2021/08/27 00:33:39;;;;;;;3.13;2.83;;;14.60;98.30;;;;;;5117514;23;20508;-79
2021/08/27 00:35:42;;;;;;;5.33;3.13;;;14.60;98.30;;;;;;5126128;23;20430;-80
2021/08/27 00:37:45;;;;;;;7.20;4.00;;;14.50;98.30;;;;;;5126275;23;20435;-81
2021/08/27 00:39:48;;;;;;;5.23;3.27;;;14.50;98.30;;;;;;5117506;23;20460;-80
2021/08/27 00:41:51;;;;;;;3.87;3.00;;;14.50;98.30;;;;;;5117903;23;21133;-80
2021/08/27 00:43:54;;;;;;;3.87;2.80;;;14.50;98.30;;;;;;5125362;23;20426;-80
2021/08/27 00:45:57;;;;;;;4.10;2.80;;;14.50;98.30;;;;;;5126259;23;20919;-80
2021/08/27 00:48:02;;;;;;;7.07;3.23;;;14.40;98.30;;;;;;5118465;23;20439;-80
2021/08/27 00:50:06;;;;;;;4.10;3.20;;;14.40;98.30;;;;;;5126406;23;20449;-79
2021/08/27 00:52:10;;;;;;;4.40;3.20;;;14.40;98.30;;;;;;5117262;23;20434;-80
2021/08/27 00:54:14;;;;;;;5.93;3.10;;;14.50;98.30;;;;;;5125156;23;20489;-80
2021/08/27 00:56:18;;;;;;;3.83;2.83;;;14.40;98.30;;;;;;5117847;23;20991;-80
2021/08/27 00:58:21;;;;;;;4.43;2.77;;;14.40;98.30;;;;;;5125534;23;20426;-80
2021/08/27 01:00:24;;;;;;;5.90;3.63;;;14.40;98.30;;;;;;5126083;23;20508;-80
2021/08/27 01:02:28;;;;;;;5.93;3.50;;;14.40;98.30;;;;;;5126076;23;20519;-80
2021/08/27 01:04:35;;;;;;;4.70;3.10;;;14.40;98.30;;;;;;5126098;23;20457;-81
2021/08/27 01:06:42;;;;;;;4.40;2.80;;;14.40;98.30;;;;;;5118217;23;21233;-80
2021/08/27 01:08:53;;;;;;;4.57;2.90;;;14.50;98.30;;;;;;5126050;23;20410;-81
2021/08/27 01:11:03;;;;;;;4.43;2.93;;;14.40;98.30;;;;;;5118085;23;20415;-81
2021/08/27 01:13:13;;;;;;;7.00;3.10;;;14.30;98.30;;;;;;5118074;23;20420;-80
2021/08/27 01:15:21;;;;;;;8.20;4.07;;;14.30;98.30;;;;;;5117769;23;20410;-80
2021/08/27 01:17:29;;;;;;;4.33;2.80;;;14.30;98.30;;;;;;5126278;23;20492;-80
2021/08/27 01:19:54;;;;;;;3.93;3.30;;;14.30;98.30;;;;;;5117796;23;20445;-80
2021/08/27 01:22:13;;;;;;;4.77;3.00;;;14.30;98.30;;;;;;5128112;23;20398;-80
2021/08/27 01:24:19;;;;;;;3.97;3.17;;;14.30;98.30;;;;;;5126808;23;20549;-80
2021/08/27 01:26:25;;;;;;;5.10;3.90;;;14.40;98.30;;;;;;5118691;23;20414;-80
2021/08/27 01:28:29;;;;;;;8.73;3.30;;;14.40;98.30;;;;;;5126180;23;20820;-80
2021/08/27 01:30:41;;;;;;;5.90;3.13;;;14.30;98.30;;;;;;5126386;23;20500;-80
2021/08/27 01:32:51;;;;;;;6.13;3.27;;;14.30;98.30;;;;;;5118209;23;20436;-80
2021/08/27 01:34:57;;;;;;;8.70;3.90;;;14.20;98.30;;;;;;5125841;23;20477;-80
2021/08/27 01:37:00;;;;;;;5.83;3.20;;;14.30;98.30;;;;;;5126557;23;20978;-80
2021/08/27 01:39:05;;;;;;;3.77;3.20;;;14.30;98.30;;;;;;5126077;23;20418;-80
2021/08/27 01:41:11;;;;;;;5.70;3.53;;;14.20;98.30;;;;;;5126904;23;20430;-79
2021/08/27 01:43:16;;;;;;;4.50;3.17;;;14.20;98.30;;;;;;5128110;23;20923;-79
2021/08/27 01:45:21;;;;;;;3.90;2.97;;;14.20;98.30;;;;;;5127577;23;20446;-79
2021/08/27 01:47:26;;;;;;;4.97;3.20;;;14.20;98.30;;;;;;5120000;23;20434;-80
2021/08/27 01:49:31;;;;;;;4.13;2.90;;;14.20;98.30;;;;;;5129982;23;20477;-80
2021/08/27 01:51:37;;;;;;;5.10;3.50;;;14.30;98.30;;;;;;5129256;23;20426;-80
2021/08/27 01:53:41;;;;;;;5.43;3.83;;;14.30;98.30;;;;;;5120304;23;20516;-80
2021/08/27 01:55:45;;;;;;;7.63;3.90;;;14.30;98.30;;;;;;5127000;23;20414;-80
2021/08/27 01:57:49;;;;;;;5.90;3.10;;;14.30;98.30;;;;;;5117560;23;20438;-80
2021/08/27 01:59:52;;;;;;;4.13;3.20;;;14.30;98.30;;;;;;5125335;23;20501;-80
2021/08/27 02:01:55;;;;;;;4.67;3.47;;;14.30;98.30;;;;;;5125038;23;20740;-80
2021/08/27 02:04:04;;;;;;;5.20;3.13;;;14.40;98.30;;;;;;5116212;23;20483;-80
2021/08/27 02:06:09;;;;;;;4.27;2.80;;;14.30;98.30;;;;;;5125342;23;20441;-80
2021/08/27 02:08:16;;;;;;;6.03;3.57;;;14.40;98.30;;;;;;5125758;23;20468;-80
2021/08/27 02:10:19;;;;;;;3.67;2.70;;;14.30;98.30;;;;;;5125501;23;20445;-80
2021/08/27 02:12:23;;;;;;;7.80;3.40;;;14.30;98.30;;;;;;5117483;23;20433;-80
2021/08/27 02:14:27;;;;;;;3.60;3.00;;;14.30;98.30;;;;;;5117221;23;20430;-80
2021/08/27 02:16:30;;;;;;;8.57;3.20;;;14.30;98.30;;;;;;5124923;23;20430;-80
2021/08/27 02:18:33;;;;;;;5.80;3.50;;;14.40;98.30;;;;;;5117452;23;20426;-79
2021/08/27 02:20:37;;;;;;;4.67;2.87;;;14.40;98.30;;;;;;5116919;23;20464;-80
2021/08/27 02:22:41;;;;;;;5.20;3.10;;;14.30;98.30;;;;;;5117687;23;20438;-80
2021/08/27 02:24:56;;;;;;;6.57;3.30;;;14.40;98.30;;;;;;5117619;23;20735;-80
2021/08/27 02:27:02;;;;;;;6.63;4.37;;;14.40;98.30;;;;;;5125966;23;20409;-80
2021/08/27 02:29:05;;;;;;;6.23;3.07;;;14.40;98.30;;;;;;5117563;23;20422;-80
2021/08/27 02:31:09;;;;;;;4.97;3.30;;;14.30;98.30;;;;;;5117487;23;20430;-80
2021/08/27 02:33:13;;;;;;;5.30;3.07;;;14.40;98.30;;;;;;5126200;23;20426;-80
2021/08/27 02:35:17;;;;;;;5.27;3.33;;;14.40;98.30;;;;;;5125521;23;20904;-80
2021/08/27 02:37:22;;;;;;;4.30;3.73;;;14.40;98.30;;;;;;5125965;23;20461;-80
2021/08/27 02:39:29;;;;;;;4.83;3.23;;;14.40;98.30;;;;;;5125367;23;20779;-80
2021/08/27 02:41:33;;;;;;;4.90;3.20;;;14.50;98.30;;;;;;5126451;23;20403;-79
2021/08/27 02:43:36;;;;;;;3.00;2.70;;;14.60;98.30;;;;;;5125487;23;20764;-80
2021/08/27 02:45:39;;;;;;;4.77;2.77;;;14.50;98.30;;;;;;5125369;23;20449;-80
2021/08/27 02:47:43;;;;;;;4.77;3.13;;;14.60;98.30;;;;;;5125287;23;20457;-80
2021/08/27 02:49:46;;;;;;;8.80;3.77;;;14.50;98.30;;;;;;5124822;23;20453;-80
2021/08/27 02:51:57;;;;;;;6.33;3.53;;;14.50;98.30;;;;;;5117451;23;20430;-80
2021/08/27 02:54:04;;;;;;;8.70;3.30;;;14.50;98.30;;;;;;5125199;23;20883;-79
2021/08/27 02:56:12;;;;;;;6.13;3.03;;;14.50;98.30;;;;;;5117109;23;20410;-81
2021/08/27 02:58:19;;;;;;;5.30;2.90;;;14.60;98.30;;;;;;5117370;23;20413;-80
2021/08/27 03:00:22;;;;;;;6.00;2.70;;;14.60;98.30;;;;;;5117513;23;20966;-80
2021/08/27 03:02:26;;;;;;;4.30;3.07;;;14.60;98.30;;;;;;5125862;23;20436;-79
2021/08/27 03:04:40;;;;;;;5.17;2.97;;;14.60;98.30;;;;;;5125652;23;20429;-80
2021/08/27 03:06:49;;;;;;;4.27;3.10;;;14.60;98.30;;;;;;5125650;23;20437;-79
2021/08/27 03:09:02;;;;;;;3.20;2.87;;;14.50;98.30;;;;;;5124873;23;20414;-80
2021/08/27 03:11:11;;;;;;;3.33;2.73;;;14.40;98.30;;;;;;5125042;23;20418;-80
2021/08/27 03:13:20;;;;;;;4.93;3.20;;;14.50;98.30;;;;;;5125047;23;20476;-80
2021/08/27 03:15:29;;;;;;;5.73;3.10;;;14.60;98.30;;;;;;5116244;23;20414;-80
2021/08/27 03:17:40;;;;;;;7.57;3.10;;;14.60;98.30;;;;;;5125370;23;20410;-80
2021/08/27 03:19:51;;;;;;;4.60;3.40;;;14.70;98.30;;;;;;5125785;23;20445;-80
2021/08/27 03:22:00;;;;;;;5.17;2.90;;;14.70;98.30;;;;;;5125455;23;20410;-80
2021/08/27 03:24:15;;;;;;;7.40;3.00;;;14.60;98.30;;;;;;5116478;23;20414;-80
2021/08/27 03:26:21;;;;;;;6.00;3.47;;;14.60;98.30;;;;;;5126068;23;20426;-80
2021/08/27 03:28:28;;;;;;;5.23;3.53;;;14.60;98.30;;;;;;5117452;23;20419;-80
2021/08/27 03:30:33;;;;;;;5.30;3.37;;;14.60;98.30;;;;;;5125021;23;20441;-80
2021/08/27 03:32:36;;;;;;;8.03;3.57;;;14.60;98.30;;;;;;5117222;23;20819;-79
2021/08/27 03:34:42;;;;;;;7.07;2.90;;;14.70;98.30;;;;;;5125485;23;20426;-80
2021/08/27 03:36:45;;;;;;;6.63;3.30;;;14.70;98.30;;;;;;5125594;23;20453;-80
2021/08/27 03:38:48;;;;;;;8.00;4.27;;;14.70;98.30;;;;;;5125458;23;20477;-80
2021/08/27 03:40:51;;;;;;;6.33;3.23;;;14.60;98.30;;;;;;5125324;23;20484;-80
2021/08/27 03:42:57;;;;;;;4.00;2.90;;;14.70;98.30;;;;;;5117480;23;20835;-80
2021/08/27 03:45:01;;;;;;;5.43;3.00;;;14.70;98.30;;;;;;5116983;23;20476;-80
2021/08/27 03:47:05;;;;;;;10.00;3.37;;;14.60;98.30;;;;;;5116872;23;20453;-79
2021/08/27 03:49:09;;;;;;;6.57;3.53;;;14.70;98.30;;;;;;5125380;23;20484;-80
2021/08/27 03:51:12;;;;;;;6.93;3.20;;;14.70;98.30;;;;;;5124768;23;20445;-80
2021/08/27 03:53:15;;;;;;;5.90;3.70;;;14.70;98.30;;;;;;5124931;23;20426;-80
2021/08/27 03:55:19;;;;;;;7.87;3.33;;;14.70;98.30;;;;;;5125061;23;20908;-81
2021/08/27 03:57:23;;;;;;;5.33;3.23;;;14.70;98.30;;;;;;5125589;23;20771;-80
2021/08/27 03:59:26;;;;;;;8.17;4.50;;;14.70;98.30;;;;;;5125550;23;20776;-80
2021/08/27 04:01:34;;;;;;;5.70;2.80;;;14.70;98.30;;;;;;5125230;23;20426;-80
2021/08/27 04:03:37;;;;;;;9.90;6.00;;;14.70;98.30;;;;;;5125639;23;20406;-81
2021/08/27 04:05:58;;;;;;;11.70;6.93;;;14.70;98.30;;;;;;5117801;23;20929;-80
2021/08/27 04:08:01;;;;;;;8.97;4.30;;;14.70;98.30;;;;;;5125359;23;20528;-81
2021/08/27 04:10:04;;;;;;;4.70;2.90;;;14.70;98.30;;;;;;5117310;23;20460;-81
2021/08/27 04:12:08;;;;;;;7.80;3.57;;;14.70;98.30;;;;;;5117683;23;20915;-81
2021/08/27 04:14:11;;;;;;;5.00;2.70;;;14.70;98.30;;;;;;5116861;23;20441;-80
2021/08/27 04:16:13;;;;;;;7.53;3.10;;;14.60;98.30;;;;;;5125759;23;20425;-81
2021/08/27 04:18:18;;;;;;;8.13;3.30;;;14.70;98.30;;;;;;5125674;23;20480;-80
2021/08/27 04:20:21;;;;;;;7.47;3.50;;;14.70;98.30;;;;;;5125480;23;20461;-80
2021/08/27 04:22:23;;;;;;;8.20;2.90;;;14.70;98.30;;;;;;5126079;23;20517;-80
2021/08/27 04:24:26;;;;;;;8.30;3.20;;;14.70;98.30;;;;;;5126042;23;20910;-80
2021/08/27 04:26:29;;;;;;;4.40;2.97;;;14.70;98.30;;;;;;5118236;23;20959;-80
2021/08/27 04:28:32;;;;;;;6.03;3.07;;;14.70;98.30;;;;;;5119325;23;20429;-80
2021/08/27 04:30:35;;;;;;;4.77;2.83;;;14.70;98.30;;;;;;5129543;23;20533;-80
2021/08/27 04:32:38;;;;;;;5.70;3.10;;;14.70;98.30;;;;;;5118868;23;20434;-80
2021/08/27 04:34:43;;;;;;;9.23;4.03;;;14.80;98.30;;;;;;5117585;23;20461;-80
2021/08/27 04:36:45;;;;;;;3.23;2.67;;;14.70;98.30;;;;;;5126313;23;20422;-81
2021/08/27 04:38:50;;;;;;;5.03;2.97;;;14.70;98.30;;;;;;5126750;23;20900;-81
2021/08/27 04:40:53;;;;;;;7.53;2.90;;;14.80;98.30;;;;;;5126094;23;20430;-80
2021/08/27 04:42:55;;;;;;;4.43;2.77;;;14.80;98.30;;;;;;5127055;23;20800;-80
2021/08/27 04:44:59;;;;;;;4.00;2.80;;;14.80;98.30;;;;;;5126707;23;20430;-81
2021/08/27 04:47:01;;;;;;;5.30;2.90;;;14.80;98.30;;;;;;5118662;23;20966;-80
2021/08/27 04:49:04;;;;;;;4.47;3.00;;;14.80;98.30;;;;;;5119366;23;20513;-81
2021/08/27 04:51:09;;;;;;;4.93;3.37;;;14.80;98.30;;;;;;5128731;23;20912;-82
2021/08/27 04:53:12;;;;;;;4.23;3.10;;;14.80;98.30;;;;;;5129653;23;21140;-82
2021/08/27 04:55:15;;;;;;;4.30;3.00;;;14.80;98.30;;;;;;5135971;23;20747;-83
2021/08/27 04:57:18;;;;;;;3.93;2.60;;;14.90;98.30;;;;;;5134572;23;20509;-82
2021/08/27 04:59:21;;;;;;;5.00;2.73;;;14.90;98.30;;;;;;5136185;23;20534;-83
2021/08/27 05:01:24;;;;;;;3.57;3.00;;;14.90;98.30;;;;;;5136946;23;20433;-83
2021/08/27 05:03:27;;;;;;;3.57;2.63;;;14.90;98.30;;;;;;5123123;23;20429;-83
2021/08/27 05:05:34;;;;;;;7.43;3.13;;;14.90;98.30;;;;;;5130345;23;20429;-83
2021/08/27 05:07:39;;;;;;;4.80;3.10;;;14.90;98.30;;;;;;5129071;23;20449;-82
2021/08/27 05:09:43;;;;;;;4.93;2.70;;;14.90;98.30;;;;;;5120811;23;20944;-82
2021/08/27 05:11:46;;;;;;;5.60;3.30;;;14.90;98.30;;;;;;5128731;23;20417;-82
2021/08/27 05:13:49;;;;;;;3.70;3.00;;;15.00;98.30;;;;;;5120076;23;21008;-82
2021/08/27 05:15:52;;;;;;;4.40;2.80;;;15.00;98.30;;;;;;5121115;23;20430;-82
2021/08/27 05:17:55;;;;;;;6.80;2.83;;;15.00;98.30;;;;;;5121352;23;20429;-82
2021/08/27 05:19:58;;;;;;;5.60;3.03;;;15.10;98.30;;;;;;5129474;23;20453;-82
2021/08/27 05:22:01;;;;;;;7.13;3.00;;;15.10;98.30;;;;;;5121712;23;20477;-81
2021/08/27 05:24:06;;;;;;;6.70;2.97;;;15.10;98.30;;;;;;5121277;23;20430;-82
2021/08/27 05:26:08;;;;;;;4.13;2.83;;;15.10;98.30;;;;;;5121022;23;20433;-82
2021/08/27 05:28:11;;;;;;;3.50;2.90;;;15.10;98.30;;;;;;5121731;23;20485;-83
2021/08/27 05:30:15;;;;;;;4.17;2.93;;;15.10;98.30;;;;;;5121430;23;20454;-82
2021/08/27 05:32:18;;;;;;;5.30;3.20;;;15.10;98.30;;;;;;5121020;23;20432;-82
2021/08/27 05:34:20;;;;;;;2.50;2.30;;;15.10;98.30;;;;;;5124223;23;20494;-82
2021/08/27 05:36:23;;;;;;;4.43;3.03;;;15.10;98.30;;;;;;5128210;23;20429;-82
2021/08/27 05:38:26;;;;;;;3.90;2.73;;;15.10;98.30;;;;;;5120441;23;20520;-82
2021/08/27 05:40:31;;;;;;;6.23;3.10;;;15.20;98.30;;;;;;5120073;23;20955;-82
2021/08/27 05:42:33;;;;;;;5.03;3.03;;;15.20;98.30;;;;;;5126994;23;20437;-82
2021/08/27 05:44:36;;;;;;;4.97;3.40;;;15.20;98.30;;;;;;5126836;23;20428;-82
2021/08/27 05:46:39;;;;;;;6.90;3.20;;;15.20;98.30;;;;;;5127421;23;20741;-82
2021/08/27 05:48:42;;;;;;;6.03;3.50;;;15.20;98.30;;;;;;5127342;23;20767;-82
2021/08/27 05:50:45;;;;;;;4.73;3.10;;;15.30;98.30;;;;;;5119149;23;20489;-82
2021/08/27 05:52:48;;;;;;;4.50;2.87;;;15.30;98.30;;;;;;5119313;23;20426;-82
2021/08/27 05:54:51;;;;;;;5.47;3.13;;;15.30;98.30;;;;;;5118555;23;20493;-82
2021/08/27 05:56:56;;;;;;;4.37;2.90;;;15.30;98.30;;;;;;5128004;23;20429;-82
2021/08/27 05:58:59;;;;;;;3.70;2.90;;;15.30;98.30;;;;;;5120161;23;21033;-82
2021/08/27 06:01:02;;;;;;;5.40;3.17;;;15.30;98.30;;;;;;5119271;23;20430;-82
2021/08/27 06:03:05;;;;;;;3.77;2.90;;;15.30;98.30;;;;;;5119458;23;20437;-82
2021/08/27 06:05:09;;;;;;;4.97;3.97;;;15.30;98.30;;;;;;5119311;23;20452;-82
2021/08/27 06:07:12;;;;;;;5.80;3.40;;;15.30;98.30;;;;;;5119987;23;20526;-82
2021/08/27 06:09:14;;;;;;;6.50;3.20;;;15.20;98.30;;;;;;5119611;23;20450;-82
2021/08/27 06:11:17;;;;;;;4.50;3.90;;;15.30;98.30;;;;;;5119335;23;20437;-82
2021/08/27 06:13:22;;;;;;;3.93;3.30;;;15.30;98.30;;;;;;5119425;23;20746;-82
2021/08/27 06:15:25;;;;;;;4.70;3.13;;;15.30;98.30;;;;;;5119825;23;20426;-82
2021/08/27 06:17:28;;;;;;;4.53;2.97;;;15.20;98.30;;;;;;5120556;23;20513;-82
2021/08/27 06:19:30;;;;;;;5.33;2.73;;;15.20;98.30;;;;;;5128090;23;21002;-82
2021/08/27 06:21:35;;;;;;;4.27;2.93;;;15.30;98.30;;;;;;5119180;23;20410;-82
2021/08/27 06:23:38;;;;;;;3.57;3.07;;;15.30;98.30;;;;;;5119712;23;20432;-82
2021/08/27 06:25:41;;;;;;;4.90;2.70;;;15.30;98.30;;;;;;5118323;23;20464;-82
2021/08/27 06:27:44;;;;;;;3.40;2.53;;;15.30;98.30;;;;;;5118942;23;20473;-82
2021/08/27 06:29:48;;;;;;;3.90;3.13;;;15.40;98.30;;;;;;5119689;23;20458;-82
2021/08/27 06:31:51;;;;;;;3.20;2.90;;;15.40;98.30;;;;;;5126203;23;20508;-82
2021/08/27 06:33:54;;;;;;;3.63;2.73;;;15.50;98.30;;;;;;5118860;23;20441;-82
2021/08/27 06:35:57;;;;;;;7.33;4.77;;;15.50;98.30;;;;;;5127584;23;20430;-82
2021/08/27 06:40:21;;;;;;;4.07;2.47;;;15.60;98.30;;;;;;5128908;23;20453;-82
2021/08/27 06:42:23;;;;;;;4.03;2.47;;;15.70;98.30;;;;;;5126777;23;20426;-82
2021/08/27 06:44:26;;;;;;;4.93;2.57;;;15.70;98.30;;;;;;5117356;23;20438;-82
2021/08/27 06:46:31;;;;;;;3.10;2.50;;;15.80;98.30;;;;;;5117492;23;20488;-82
2021/08/27 06:48:35;;;;;;;3.00;2.50;;;15.90;98.30;;;;;;5117998;23;20450;-82
2021/08/27 06:50:38;;;;;;;2.97;2.60;;;15.90;98.30;;;;;;5117756;23;20456;-81
2021/08/27 06:52:41;;;;;;;2.90;2.60;;;15.90;98.30;;;;;;5126219;23;20425;-82
2021/08/27 06:54:45;;;;;;;3.17;2.57;;;15.90;98.30;;;;;;5118512;23;20434;-82
2021/08/27 06:56:48;;;;;;;3.70;2.90;;;15.90;98.30;;;;;;5117809;23;20426;-81
2021/08/27 06:58:50;;;;;;;8.57;5.30;;;16.00;98.30;;;;;;5126817;23;20509;-82
2021/08/27 07:00:54;;;;;;;3.90;3.00;;;16.00;98.30;;;;;;5119884;23;20765;-82
2021/08/27 07:02:58;;;;;;;4.20;2.83;;;16.10;98.30;;;;;;5127527;23;20457;-82
2021/08/27 07:05:02;;;;;;;2.90;2.60;;;16.10;98.30;;;;;;5119540;23;20415;-82
2021/08/27 07:07:05;;;;;;;3.63;3.20;;;16.10;98.30;;;;;;5127698;23;20916;-82
2021/08/27 07:09:08;;;;;;;4.70;3.30;;;16.10;98.30;;;;;;5127441;23;20749;-82
2021/08/27 07:11:11;;;;;;;5.27;3.27;;;16.10;98.30;;;;;;5128765;23;20454;-82
2021/08/27 07:13:14;;;;;;;5.10;4.50;;;16.10;98.30;;;;;;5120716;23;20526;-82
2021/08/27 07:15:18;;;;;;;4.83;2.90;;;16.20;98.30;;;;;;5120071;23;20896;-82
2021/08/27 07:17:22;;;;;;;4.40;2.90;;;16.20;98.30;;;;;;5120230;23;20434;-82
2021/08/27 07:19:27;;;;;;;3.37;2.90;;;16.10;98.30;;;;;;5119894;23;20442;-82
2021/08/27 07:21:29;;;;;;;8.63;3.10;;;16.10;98.30;;;;;;5120535;23;20852;-82
2021/08/27 07:23:32;;;;;;;5.60;3.07;;;16.10;98.30;;;;;;5120118;23;20508;-82
2021/08/27 07:25:35;;;;;;;4.20;3.30;;;16.10;98.30;;;;;;5129273;23;20501;-82
2021/08/27 07:27:38;;;;;;;3.37;2.90;;;16.20;98.30;;;;;;5129518;23;20442;-82
2021/08/27 07:29:41;;;;;;;4.73;2.83;;;16.30;98.30;;;;;;5129065;23;20512;-82
2021/08/27 07:31:44;;;;;;;3.50;2.83;;;16.30;98.30;;;;;;5129236;23;20432;-82
2021/08/27 07:33:49;;;;;;;4.43;3.10;;;16.40;98.30;;;;;;5121561;23;20426;-82
2021/08/27 07:35:53;;;;;;;4.10;3.17;;;16.50;98.30;;;;;;5129988;23;20430;-82
2021/08/27 07:37:56;;;;;;;3.83;2.87;;;16.50;98.30;;;;;;5121868;23;20432;-82
2021/08/27 07:39:59;;;;;;;3.07;2.77;;;16.50;98.30;;;;;;5130485;23;20541;-82
2021/08/27 07:42:02;;;;;;;4.50;3.50;;;16.50;98.30;;;;;;5130099;23;20883;-83
2021/08/27 07:44:06;;;;;;;4.13;3.23;;;16.50;98.30;;;;;;5123933;23;20486;-82
2021/08/27 07:46:09;;;;;;;6.60;5.90;;;16.50;98.30;;;;;;5127884;23;20509;-82
2021/08/27 07:48:12;;;;;;;21.37;19.07;;;16.50;98.30;;;;;;5118706;23;20434;-82
2021/08/27 07:50:16;;;;;;;20.57;14.87;;;16.60;98.30;;;;;;5118746;23;20532;-82
2021/08/27 07:52:20;;;;;;;23.67;15.77;;;16.60;98.30;;;;;;5127323;23;20430;-82
2021/08/27 07:54:24;;;;;;;24.33;18.20;;;16.70;98.30;;;;;;5119061;23;20426;-82
2021/08/27 07:56:27;;;;;;;7.90;5.00;;;16.70;98.30;;;;;;5119216;23;20433;-82
2021/08/27 07:58:30;;;;;;;7.63;5.03;;;16.70;98.30;;;;;;5119960;23;20440;-82
2021/08/27 08:00:33;;;;;;;4.97;4.27;;;16.70;98.30;;;;;;5128002;23;20454;-82
2021/08/27 08:02:36;;;;;;;5.40;3.83;;;16.80;98.30;;;;;;5120596;23;20430;-82
2021/08/27 08:04:39;;;;;;;162.83;112.53;;;16.80;98.30;;;;;;5120501;23;20512;-83
2021/08/27 08:06:43;;;;;;;77.67;54.70;;;16.90;98.30;;;;;;5129841;23;20429;-82
2021/08/27 08:08:47;;;;;;;62.90;42.47;;;17.00;98.30;;;;;;5129960;23;20447;-82
2021/08/27 08:10:50;;;;;;;16.07;10.70;;;17.10;98.30;;;;;;5130383;23;20480;-82
2021/08/27 08:12:53;;;;;;;7.40;5.90;;;17.20;98.30;;;;;;5121407;23;20453;-82
2021/08/27 08:14:56;;;;;;;10.60;7.53;;;17.30;98.30;;;;;;5121331;23;20437;-82
2021/08/27 08:16:59;;;;;;;10.77;8.33;;;17.30;98.30;;;;;;5121813;23;20920;-82
2021/08/27 08:19:03;;;;;;;8.63;6.50;;;17.30;98.30;;;;;;5121269;23;20460;-82
2021/08/27 08:21:06;;;;;;;14.20;7.53;;;17.40;98.30;;;;;;5130881;23;20440;-82
2021/08/27 08:23:10;;;;;;;18.60;15.30;;;17.40;98.30;;;;;;5121663;23;20807;-82
2021/08/27 08:25:14;;;;;;;27.70;21.87;;;17.50;98.30;;;;;;5129427;23;20469;-83
2021/08/27 08:27:17;;;;;;;71.00;49.03;;;17.60;98.30;;;;;;5122283;23;20437;-82
2021/08/27 08:29:20;;;;;;;25.10;19.83;;;17.70;98.30;;;;;;5120105;23;20453;-82
2021/08/27 08:31:23;;;;;;;11.63;9.40;;;17.70;98.30;;;;;;5121126;23;20434;-81
2021/08/27 08:33:26;;;;;;;10.43;8.33;;;17.70;98.30;;;;;;5119401;23;20437;-83
2021/08/27 08:35:29;;;;;;;12.97;8.47;;;17.70;98.30;;;;;;5127439;23;20429;-82
2021/08/27 08:37:32;;;;;;;11.70;9.13;;;17.80;98.30;;;;;;5118707;23;20430;-82
2021/08/27 08:39:36;;;;;;;7.70;5.67;;;17.90;98.30;;;;;;5118675;23;20453;-82
2021/08/27 08:41:41;;;;;;;9.83;6.10;;;18.00;98.30;;;;;;5127131;23;20429;-82
2021/08/27 08:43:45;;;;;;;6.37;4.63;;;18.10;98.30;;;;;;5118879;23;20429;-82
2021/08/27 08:45:51;;;;;;;7.93;4.10;;;18.20;98.30;;;;;;5126574;23;20422;-82
2021/08/27 08:47:57;;;;;;;4.97;3.17;;;18.20;98.30;;;;;;5119650;23;20469;-82
2021/08/27 08:50:01;;;;;;;8.13;4.50;;;18.30;98.30;;;;;;5127666;23;20456;-82
2021/08/27 08:52:06;;;;;;;5.70;4.33;;;18.30;98.30;;;;;;5119971;23;20579;-82
2021/08/27 08:54:12;;;;;;;5.57;4.00;;;18.30;98.30;;;;;;5120711;23;20573;-82
2021/08/27 08:56:14;;;;;;;5.23;4.40;;;18.30;98.30;;;;;;5129518;23;20418;-82
2021/08/27 08:58:19;;;;;;;5.40;4.80;;;18.30;98.30;;;;;;5129337;23;20923;-82
2021/08/27 09:00:22;;;;;;;5.90;4.53;;;18.30;98.30;;;;;;5121129;23;20537;-82
2021/08/27 09:02:27;;;;;;;6.60;3.87;;;18.30;98.30;;;;;;5120849;23;20908;-82
2021/08/27 09:04:30;;;;;;;4.80;3.93;;;18.30;98.30;;;;;;5120012;23;20505;-82
2021/08/27 09:06:34;;;;;;;5.60;3.63;;;18.30;98.30;;;;;;5117376;23;20513;-82
2021/08/27 09:08:39;;;;;;;5.13;3.40;;;18.30;98.30;;;;;;5117678;23;20444;-82
2021/08/27 09:10:44;;;;;;;4.77;3.90;;;18.30;98.30;;;;;;5117214;23;20460;-82
2021/08/27 09:12:47;;;;;;;3.27;2.23;;;18.20;98.30;;;;;;5120660;23;20513;-82
2021/08/27 09:15:03;;;;;;;32.40;23.37;;;18.20;98.30;;;;;;5120705;23;20492;-82
2021/08/27 09:17:07;;;;;;;35.23;24.63;;;18.20;98.30;;;;;;5121259;23;20411;-82
2021/08/27 09:19:10;;;;;;;8.03;5.70;;;18.10;98.30;;;;;;5121521;23;20452;-82
2021/08/27 09:21:35;;;;;;;3.60;2.57;;;17.90;98.30;;;;;;5120687;23;20986;-82
2021/08/27 09:23:39;;;;;;;4.03;2.70;;;17.80;98.30;;;;;;5129077;23;20472;-82
2021/08/27 09:25:42;;;;;;;3.67;3.03;;;17.80;98.30;;;;;;5121987;23;20452;-82
2021/08/27 09:28:02;;;;;;;2.77;2.53;;;18.20;98.30;;;;;;5121487;23;20924;-83
2021/08/27 09:30:11;;;;;;;3.90;3.57;;;18.60;98.30;;;;;;5119424;23;20536;-83
2021/08/27 09:32:24;;;;;;;2.80;2.60;;;19.20;98.30;;;;;;5122003;23;20474;-82
2021/08/27 09:34:28;;;;;;;2.90;2.37;;;19.70;98.30;;;;;;5121551;23;20500;-82
2021/08/27 09:36:32;;;;;;;3.73;2.80;;;19.90;98.30;;;;;;5121998;23;20426;-82
2021/08/27 09:38:36;;;;;;;3.23;2.20;;;20.20;98.30;;;;;;5122444;23;20430;-83
2021/08/27 09:40:39;;;;;;;2.73;2.43;;;20.50;98.30;;;;;;5129703;23;20442;-83
2021/08/27 09:42:44;;;;;;;2.70;2.07;;;20.70;98.30;;;;;;5121822;23;20436;-82
2021/08/27 09:44:56;;;;;;;2.63;2.43;;;21.10;98.30;;;;;;5129651;23;20422;-82
2021/08/27 09:47:07;;;;;;;2.20;1.93;;;21.40;98.30;;;;;;5130082;23;20461;-82
2021/08/27 09:49:26;;;;;;;3.37;2.57;;;21.30;98.30;;;;;;5121601;23;20458;-82
2021/08/27 09:51:43;;;;;;;2.70;2.27;;;21.30;98.30;;;;;;5129504;23;20413;-82
2021/08/27 09:53:46;;;;;;;5.40;4.33;;;21.40;98.30;;;;;;5121250;23;20508;-83
2021/08/27 09:55:57;;;;;;;4.43;2.40;;;21.40;98.30;;;;;;5129552;23;20429;-82
2021/08/27 09:58:05;;;;;;;2.20;2.00;;;21.40;98.30;;;;;;5129961;23;20429;-82
2021/08/27 10:00:18;;;;;;;2.97;2.10;;;21.10;98.30;;;;;;5121947;23;20520;-82
2021/08/27 10:02:32;;;;;;;2.27;2.07;;;21.30;98.30;;;;;;5130437;23;20922;-82
2021/08/27 10:04:37;;;;;;;2.00;1.90;;;21.40;98.30;;;;;;5129007;23;20425;-83
2021/08/27 10:06:39;;;;;;;2.47;2.27;;;21.50;98.30;;;;;;5122015;23;20468;-82
2021/08/27 10:08:54;;;;;;;3.83;2.57;;;21.50;98.30;;;;;;5121370;23;20425;-83
2021/08/27 10:11:14;;;;;;;5.17;3.40;;;21.70;98.30;;;;;;5122162;23;20434;-83
2021/08/27 10:13:17;;;;;;;3.10;2.20;;;21.60;98.30;;;;;;5122450;23;20418;-83
2021/08/27 10:15:21;;;;;;;2.50;2.30;;;21.10;98.30;;;;;;5130721;23;20516;-83
2021/08/27 10:17:25;;;;;;;3.37;2.20;;;20.70;98.30;;;;;;5122272;23;20426;-82
2021/08/27 10:19:29;;;;;;;4.97;2.67;;;20.40;98.30;;;;;;5129934;23;20441;-82
2021/08/27 10:21:32;;;;;;;3.00;2.33;;;20.00;98.30;;;;;;5122459;23;20411;-82
2021/08/27 10:23:36;;;;;;;4.07;2.53;;;19.70;98.30;;;;;;5122444;23;20920;-83
2021/08/27 10:25:41;;;;;;;2.73;2.53;;;19.90;98.30;;;;;;5130268;23;20432;-82
2021/08/27 10:27:48;;;;;;;2.60;2.37;;;20.10;98.30;;;;;;5122130;23;20426;-83
2021/08/27 10:29:54;;;;;;;3.30;2.63;;;20.40;98.30;;;;;;5122194;23;20461;-83
2021/08/27 10:31:57;;;;;;;3.20;2.33;;;20.40;98.30;;;;;;5121942;23;21321;-82
2021/08/27 10:34:00;;;;;;;4.10;2.90;;;20.60;98.30;;;;;;5121889;23;20472;-83
2021/08/27 10:36:04;;;;;;;7.30;6.00;;;20.60;98.30;;;;;;5122489;23;20536;-82
2021/08/27 10:38:07;;;;;;;4.20;3.80;;;20.80;98.30;;;;;;5123097;23;20513;-82
2021/08/27 10:40:38;;;;;;;2.93;2.73;;;21.00;98.30;;;;;;5130084;23;20454;-82
2021/08/27 10:42:52;;;;;;;2.97;2.40;;;21.30;98.30;;;;;;5131324;23;20433;-83
2021/08/27 10:44:55;;;;;;;2.57;2.17;;;21.60;98.30;;;;;;5130411;23;20449;-83
2021/08/27 10:47:08;;;;;;;2.90;1.97;;;21.80;98.30;;;;;;5123095;23;20434;-83
2021/08/27 10:49:11;;;;;;;2.13;1.93;;;21.50;98.30;;;;;;5122805;23;20811;-83
2021/08/27 10:53:57;;;;;;;3.20;2.83;;;21.10;98.30;;;;;;4133197;28;20583;-82